Terminal Aerodrome Forecast
Issued by NWS Cleveland, OH

Home | Current Version | Previous Version | Text Only | Print | Product List | Glossary Off
Versions: 1 2 3 4 5 6 7 8 9 10 11 12 13 14 15 16 17 18 19 20 21 22 23 24 25 26 27 28 29 30 31 32 33 34

000
FTUS41 KCLE 182000 AAA
TAFCLE
TAF AMD
KCLE 182058Z 1821/1924 02010KT P6SM SCT100
     FM190100 07005KT P6SM BKN250
     FM191000 VRB03KT 4SM BR BKN100
     FM191300 17005KT P6SM BKN250
     FM192000 VRB05KT P6SM VCSH BKN050=

USA.gov is the U.S. government's official web portal to all federal, state and local government web resources and services.